sensor_id;sensor_type;location;lat;lon;timestamp;temperature;humidity
5607;DHT22;2825;53.116;9.392;2022-09-20T00:00:05;9.40;99.90
5607;DHT22;2825;53.116;9.392;2022-09-20T00:02:31;9.40;99.90
5607;DHT22;2825;53.116;9.392;2022-09-20T00:04:57;9.30;99.90
5607;DHT22;2825;53.116;9.392;2022-09-20T00:07:23;9.30;99.90
5607;DHT22;2825;53.116;9.392;2022-09-20T00:09:48;9.20;99.90
5607;DHT22;2825;53.116;9.392;2022-09-20T00:12:14;9.20;99.90
5607;DHT22;2825;53.116;9.392;2022-09-20T00:14:40;9.20;99.90
5607;DHT22;2825;53.116;9.392;2022-09-20T00:17:06;9.20;99.90
5607;DHT22;2825;53.116;9.392;2022-09-20T00:19:31;9.10;99.90
5607;DHT22;2825;53.116;9.392;2022-09-20T00:21:57;9.10;99.90
5607;DHT22;2825;53.116;9.392;2022-09-20T00:24:24;9.10;99.90
5607;DHT22;2825;53.116;9.392;2022-09-20T00:26:50;9.10;99.90
5607;DHT22;2825;53.116;9.392;2022-09-20T00:29:16;9.10;99.90
5607;DHT22;2825;53.116;9.392;2022-09-20T00:31:42;9.00;99.90
5607;DHT22;2825;53.116;9.392;2022-09-20T00:34:08;9.00;99.90
5607;DHT22;2825;53.116;9.392;2022-09-20T00:36:52;9.00;99.90
5607;DHT22;2825;53.116;9.392;2022-09-20T00:39:18;9.00;99.90
5607;DHT22;2825;53.116;9.392;2022-09-20T00:41:44;9.00;99.90
5607;DHT22;2825;53.116;9.392;2022-09-20T00:47:04;8.90;99.90
5607;DHT22;2825;53.116;9.392;2022-09-20T00:49:31;8.90;99.90
5607;DHT22;2825;53.116;9.392;2022-09-20T00:52:00;8.90;99.90
5607;DHT22;2825;53.116;9.392;2022-09-20T00:54:26;8.80;99.90
5607;DHT22;2825;53.116;9.392;2022-09-20T00:56:53;8.80;99.90
5607;DHT22;2825;53.116;9.392;2022-09-20T00:59:33;8.80;99.90
5607;DHT22;2825;53.116;9.392;2022-09-20T01:02:08;8.80;99.90
5607;DHT22;2825;53.116;9.392;2022-09-20T01:04:38;8.80;99.90
5607;DHT22;2825;53.116;9.392;2022-09-20T01:07:06;8.80;99.90
5607;DHT22;2825;53.116;9.392;2022-09-20T01:09:33;8.80;99.90
5607;DHT22;2825;53.116;9.392;2022-09-20T01:12:04;8.80;99.90
5607;DHT22;2825;53.116;9.392;2022-09-20T01:14:31;8.80;99.90
5607;DHT22;2825;53.116;9.392;2022-09-20T01:17:02;8.80;99.90
5607;DHT22;2825;53.116;9.392;2022-09-20T01:20:30;8.80;99.90
5607;DHT22;2825;53.116;9.392;2022-09-20T01:22:24;8.80;99.90
5607;DHT22;2825;53.116;9.392;2022-09-20T01:25:15;8.80;99.90
5607;DHT22;2825;53.116;9.392;2022-09-20T01:27:46;8.70;99.90
5607;DHT22;2825;53.116;9.392;2022-09-20T01:30:22;8.70;99.90
5607;DHT22;2825;53.116;9.392;2022-09-20T01:33:00;8.70;99.90
5607;DHT22;2825;53.116;9.392;2022-09-20T01:35:28;8.60;99.90
5607;DHT22;2825;53.116;9.392;2022-09-20T01:38:22;8.60;99.90
5607;DHT22;2825;53.116;9.392;2022-09-20T01:40:58;8.60;99.90
5607;DHT22;2825;53.116;9.392;2022-09-20T01:45:57;8.60;99.90
5607;DHT22;2825;53.116;9.392;2022-09-20T01:48:33;8.50;99.90
5607;DHT22;2825;53.116;9.392;2022-09-20T02:24:13;8.60;99.90
5607;DHT22;2825;53.116;9.392;2022-09-20T02:41:03;8.60;99.90
5607;DHT22;2825;53.116;9.392;2022-09-20T02:46:27;8.60;99.90
5607;DHT22;2825;53.116;9.392;2022-09-20T02:51:39;8.60;99.90
5607;DHT22;2825;53.116;9.392;2022-09-20T02:57:11;8.60;99.90
5607;DHT22;2825;53.116;9.392;2022-09-20T03:00:02;8.50;99.90
5607;DHT22;2825;53.116;9.392;2022-09-20T03:02:42;8.50;99.90
5607;DHT22;2825;53.116;9.392;2022-09-20T03:05:23;8.50;99.90
5607;DHT22;2825;53.116;9.392;2022-09-20T03:08:27;8.50;99.90
5607;DHT22;2825;53.116;9.392;2022-09-20T03:11:28;8.50;99.90
5607;DHT22;2825;53.116;9.392;2022-09-20T03:23:00;8.70;99.90
5607;DHT22;2825;53.116;9.392;2022-09-20T03:36:52;8.80;99.90
5607;DHT22;2825;53.116;9.392;2022-09-20T03:40:02;8.80;99.90
5607;DHT22;2825;53.116;9.392;2022-09-20T03:42:25;8.80;99.90
5607;DHT22;2825;53.116;9.392;2022-09-20T03:58:59;9.00;99.90
5607;DHT22;2825;53.116;9.392;2022-09-20T04:15:42;9.00;99.90
5607;DHT22;2825;53.116;9.392;2022-09-20T04:18:56;9.00;99.90
5607;DHT22;2825;53.116;9.392;2022-09-20T04:26:45;9.10;99.90
5607;DHT22;2825;53.116;9.392;2022-09-20T04:37:43;9.20;99.90
5607;DHT22;2825;53.116;9.392;2022-09-20T05:30:51;9.50;99.90
5607;DHT22;2825;53.116;9.392;2022-09-20T06:04:37;9.60;99.90
5607;DHT22;2825;53.116;9.392;2022-09-20T06:07:09;9.60;99.90
5607;DHT22;2825;53.116;9.392;2022-09-20T06:12:19;9.70;99.90
5607;DHT22;2825;53.116;9.392;2022-09-20T06:22:46;10.00;99.90
5607;DHT22;2825;53.116;9.392;2022-09-20T06:25:15;10.00;99.90
5607;DHT22;2825;53.116;9.392;2022-09-20T06:27:55;10.10;99.90
5607;DHT22;2825;53.116;9.392;2022-09-20T06:30:33;10.20;99.90
5607;DHT22;2825;53.116;9.392;2022-09-20T06:35:36;10.30;99.90
5607;DHT22;2825;53.116;9.392;2022-09-20T06:41:13;10.40;99.90
5607;DHT22;2825;53.116;9.392;2022-09-20T06:43:59;10.40;99.90
5607;DHT22;2825;53.116;9.392;2022-09-20T06:46:27;10.40;99.90
5607;DHT22;2825;53.116;9.392;2022-09-20T06:48:54;10.50;99.90
5607;DHT22;2825;53.116;9.392;2022-09-20T06:51:20;10.60;99.90
5607;DHT22;2825;53.116;9.392;2022-09-20T06:53:46;10.60;99.90
5607;DHT22;2825;53.116;9.392;2022-09-20T06:56:18;10.70;99.90
5607;DHT22;2825;53.116;9.392;2022-09-20T06:58:45;10.70;99.90
5607;DHT22;2825;53.116;9.392;2022-09-20T07:01:10;10.80;99.90
5607;DHT22;2825;53.116;9.392;2022-09-20T07:03:38;10.80;99.90
5607;DHT22;2825;53.116;9.392;2022-09-20T07:06:04;10.90;99.90
5607;DHT22;2825;53.116;9.392;2022-09-20T07:08:30;10.90;99.90
5607;DHT22;2825;53.116;9.392;2022-09-20T07:10:56;10.90;99.90
5607;DHT22;2825;53.116;9.392;2022-09-20T07:13:21;10.90;99.90
5607;DHT22;2825;53.116;9.392;2022-09-20T07:15:48;10.90;99.90
5607;DHT22;2825;53.116;9.392;2022-09-20T07:18:15;10.90;99.90
5607;DHT22;2825;53.116;9.392;2022-09-20T07:20:40;11.00;99.90
5607;DHT22;2825;53.116;9.392;2022-09-20T07:23:06;11.00;99.90
5607;DHT22;2825;53.116;9.392;2022-09-20T07:25:32;11.00;99.90
5607;DHT22;2825;53.116;9.392;2022-09-20T07:27:58;11.10;99.90
5607;DHT22;2825;53.116;9.392;2022-09-20T07:30:24;11.10;99.90
5607;DHT22;2825;53.116;9.392;2022-09-20T07:32:50;11.20;99.90
5607;DHT22;2825;53.116;9.392;2022-09-20T07:35:16;11.20;99.90
5607;DHT22;2825;53.116;9.392;2022-09-20T07:37:42;11.30;99.90
5607;DHT22;2825;53.116;9.392;2022-09-20T07:40:09;11.30;99.90
5607;DHT22;2825;53.116;9.392;2022-09-20T07:42:35;11.40;99.90
5607;DHT22;2825;53.116;9.392;2022-09-20T07:45:01;11.40;99.90
5607;DHT22;2825;53.116;9.392;2022-09-20T07:47:31;11.50;99.90
5607;DHT22;2825;53.116;9.392;2022-09-20T07:49:57;11.60;99.90
5607;DHT22;2825;53.116;9.392;2022-09-20T07:52:23;11.60;99.90
5607;DHT22;2825;53.116;9.392;2022-09-20T07:54:49;11.70;99.90
5607;DHT22;2825;53.116;9.392;2022-09-20T07:57:15;11.70;99.90
5607;DHT22;2825;53.116;9.392;2022-09-20T07:59:41;11.80;99.90
5607;DHT22;2825;53.116;9.392;2022-09-20T08:02:08;11.90;99.90
5607;DHT22;2825;53.116;9.392;2022-09-20T08:04:34;12.00;99.90
5607;DHT22;2825;53.116;9.392;2022-09-20T08:07:00;12.00;99.90
5607;DHT22;2825;53.116;9.392;2022-09-20T08:09:26;12.10;99.90
5607;DHT22;2825;53.116;9.392;2022-09-20T08:11:51;12.20;99.90
5607;DHT22;2825;53.116;9.392;2022-09-20T08:14:17;12.30;99.90
5607;DHT22;2825;53.116;9.392;2022-09-20T08:16:47;12.40;99.90
5607;DHT22;2825;53.116;9.392;2022-09-20T08:19:20;12.50;99.90
5607;DHT22;2825;53.116;9.392;2022-09-20T08:21:48;12.60;99.90
5607;DHT22;2825;53.116;9.392;2022-09-20T08:24:14;12.80;99.90
5607;DHT22;2825;53.116;9.392;2022-09-20T08:26:41;12.90;99.90
5607;DHT22;2825;53.116;9.392;2022-09-20T08:29:08;12.90;99.90
5607;DHT22;2825;53.116;9.392;2022-09-20T08:31:37;13.00;99.90
5607;DHT22;2825;53.116;9.392;2022-09-20T08:34:06;13.00;99.90
5607;DHT22;2825;53.116;9.392;2022-09-20T08:36:35;13.10;99.90
5607;DHT22;2825;53.116;9.392;2022-09-20T08:39:01;13.30;99.90
5607;DHT22;2825;53.116;9.392;2022-09-20T08:41:33;13.50;99.90
5607;DHT22;2825;53.116;9.392;2022-09-20T08:47:21;14.00;99.90
5607;DHT22;2825;53.116;9.392;2022-09-20T08:49:50;14.20;99.90
5607;DHT22;2825;53.116;9.392;2022-09-20T08:52:24;14.30;99.90
5607;DHT22;2825;53.116;9.392;2022-09-20T08:54:53;14.40;99.90
5607;DHT22;2825;53.116;9.392;2022-09-20T08:57:21;14.40;99.90
5607;DHT22;2825;53.116;9.392;2022-09-20T08:59:48;14.60;99.90
5607;DHT22;2825;53.116;9.392;2022-09-20T09:02:20;14.80;99.90
5607;DHT22;2825;53.116;9.392;2022-09-20T09:04:47;15.00;99.90
5607;DHT22;2825;53.116;9.392;2022-09-20T09:07:16;15.10;99.90
5607;DHT22;2825;53.116;9.392;2022-09-20T09:09:44;15.20;99.90
5607;DHT22;2825;53.116;9.392;2022-09-20T09:12:24;15.30;99.90
5607;DHT22;2825;53.116;9.392;2022-09-20T09:14:52;15.20;99.90
5607;DHT22;2825;53.116;9.392;2022-09-20T09:17:27;15.30;99.90
5607;DHT22;2825;53.116;9.392;2022-09-20T09:20:21;15.40;99.90
5607;DHT22;2825;53.116;9.392;2022-09-20T09:23:04;15.60;99.90
5607;DHT22;2825;53.116;9.392;2022-09-20T09:25:35;15.90;99.90
5607;DHT22;2825;53.116;9.392;2022-09-20T09:33:44;16.00;99.90
5607;DHT22;2825;53.116;9.392;2022-09-20T09:36:22;15.90;99.90
5607;DHT22;2825;53.116;9.392;2022-09-20T09:38:50;15.90;99.90
5607;DHT22;2825;53.116;9.392;2022-09-20T09:44:17;15.80;99.90
5607;DHT22;2825;53.116;9.392;2022-09-20T09:46:43;15.70;99.90
5607;DHT22;2825;53.116;9.392;2022-09-20T09:49:17;15.70;99.90
5607;DHT22;2825;53.116;9.392;2022-09-20T09:52:16;15.70;99.90
5607;DHT22;2825;53.116;9.392;2022-09-20T09:54:52;15.70;99.90
5607;DHT22;2825;53.116;9.392;2022-09-20T10:00:20;15.80;99.90
5607;DHT22;2825;53.116;9.392;2022-09-20T10:03:18;15.90;99.90
5607;DHT22;2825;53.116;9.392;2022-09-20T10:06:02;16.00;99.90
5607;DHT22;2825;53.116;9.392;2022-09-20T10:35:44;15.80;99.90
5607;DHT22;2825;53.116;9.392;2022-09-20T10:38:15;15.90;99.90
5607;DHT22;2825;53.116;9.392;2022-09-20T10:47:03;15.90;99.90
5607;DHT22;2825;53.116;9.392;2022-09-20T11:06:09;16.40;99.90
5607;DHT22;2825;53.116;9.392;2022-09-20T11:08:39;16.30;99.90
5607;DHT22;2825;53.116;9.392;2022-09-20T11:11:20;16.30;99.90
5607;DHT22;2825;53.116;9.392;2022-09-20T11:21:39;16.10;99.90
5607;DHT22;2825;53.116;9.392;2022-09-20T11:26:54;16.20;99.90
5607;DHT22;2825;53.116;9.392;2022-09-20T11:29:32;16.20;99.90
5607;DHT22;2825;53.116;9.392;2022-09-20T11:32:23;16.20;99.90
5607;DHT22;2825;53.116;9.392;2022-09-20T11:35:13;16.20;99.90
5607;DHT22;2825;53.116;9.392;2022-09-20T11:37:56;16.20;99.90
5607;DHT22;2825;53.116;9.392;2022-09-20T11:40:25;16.10;99.90
5607;DHT22;2825;53.116;9.392;2022-09-20T11:42:53;16.10;99.90
5607;DHT22;2825;53.116;9.392;2022-09-20T11:45:21;16.10;99.90
5607;DHT22;2825;53.116;9.392;2022-09-20T11:47:52;16.10;99.90
5607;DHT22;2825;53.116;9.392;2022-09-20T11:50:54;16.10;99.90
5607;DHT22;2825;53.116;9.392;2022-09-20T11:56:21;16.00;99.90
5607;DHT22;2825;53.116;9.392;2022-09-20T11:58:53;16.00;99.90
5607;DHT22;2825;53.116;9.392;2022-09-20T12:04:25;16.20;99.90
5607;DHT22;2825;53.116;9.392;2022-09-20T12:07:23;16.30;99.90
5607;DHT22;2825;53.116;9.392;2022-09-20T12:09:58;16.30;99.90
5607;DHT22;2825;53.116;9.392;2022-09-20T12:12:36;16.30;99.90
5607;DHT22;2825;53.116;9.392;2022-09-20T12:15:53;16.30;99.90
5607;DHT22;2825;53.116;9.392;2022-09-20T12:18:06;16.20;99.90
5607;DHT22;2825;53.116;9.392;2022-09-20T12:28:38;16.20;99.90
5607;DHT22;2825;53.116;9.392;2022-09-20T12:36:40;16.20;99.90
5607;DHT22;2825;53.116;9.392;2022-09-20T12:47:13;16.40;99.90
5607;DHT22;2825;53.116;9.392;2022-09-20T12:50:01;16.40;99.90
5607;DHT22;2825;53.116;9.392;2022-09-20T12:52:54;16.50;99.90
5607;DHT22;2825;53.116;9.392;2022-09-20T12:55:41;16.50;99.90
5607;DHT22;2825;53.116;9.392;2022-09-20T13:16:55;16.60;99.90
5607;DHT22;2825;53.116;9.392;2022-09-20T13:19:36;16.70;99.90
5607;DHT22;2825;53.116;9.392;2022-09-20T13:24:40;16.60;99.90
5607;DHT22;2825;53.116;9.392;2022-09-20T13:27:46;16.60;99.90
5607;DHT22;2825;53.116;9.392;2022-09-20T13:30:28;16.60;99.90
5607;DHT22;2825;53.116;9.392;2022-09-20T13:33:15;16.60;99.90
5607;DHT22;2825;53.116;9.392;2022-09-20T13:35:44;16.70;99.90
5607;DHT22;2825;53.116;9.392;2022-09-20T13:38:12;16.70;99.90
5607;DHT22;2825;53.116;9.392;2022-09-20T13:40:43;16.60;99.90
5607;DHT22;2825;53.116;9.392;2022-09-20T13:43:31;16.50;99.90
5607;DHT22;2825;53.116;9.392;2022-09-20T13:46:08;16.50;99.90
5607;DHT22;2825;53.116;9.392;2022-09-20T13:48:34;16.50;99.90
5607;DHT22;2825;53.116;9.392;2022-09-20T13:51:00;16.50;99.90
5607;DHT22;2825;53.116;9.392;2022-09-20T13:53:27;16.60;99.90
5607;DHT22;2825;53.116;9.392;2022-09-20T13:55:55;16.60;99.90
5607;DHT22;2825;53.116;9.392;2022-09-20T13:58:27;16.70;99.90
5607;DHT22;2825;53.116;9.392;2022-09-20T14:01:01;16.80;99.90
5607;DHT22;2825;53.116;9.392;2022-09-20T14:03:29;16.90;99.90
5607;DHT22;2825;53.116;9.392;2022-09-20T14:06:22;16.90;99.90
5607;DHT22;2825;53.116;9.392;2022-09-20T14:08:51;17.00;99.90
5607;DHT22;2825;53.116;9.392;2022-09-20T14:11:25;17.00;99.90
5607;DHT22;2825;53.116;9.392;2022-09-20T14:13:54;17.00;99.90
5607;DHT22;2825;53.116;9.392;2022-09-20T14:16:26;16.90;99.90
5607;DHT22;2825;53.116;9.392;2022-09-20T14:18:54;16.90;99.90
5607;DHT22;2825;53.116;9.392;2022-09-20T14:21:27;16.90;99.90
5607;DHT22;2825;53.116;9.392;2022-09-20T14:26:32;16.70;99.90
5607;DHT22;2825;53.116;9.392;2022-09-20T14:37:32;16.40;99.90
5607;DHT22;2825;53.116;9.392;2022-09-20T14:40:00;16.40;99.90
5607;DHT22;2825;53.116;9.392;2022-09-20T14:42:43;16.40;99.90
5607;DHT22;2825;53.116;9.392;2022-09-20T14:45:30;16.30;99.90
5607;DHT22;2825;53.116;9.392;2022-09-20T14:47:58;16.20;99.90
5607;DHT22;2825;53.116;9.392;2022-09-20T14:53:03;16.10;99.90
5607;DHT22;2825;53.116;9.392;2022-09-20T14:55:31;16.10;99.90
5607;DHT22;2825;53.116;9.392;2022-09-20T14:58:10;16.20;99.90
5607;DHT22;2825;53.116;9.392;2022-09-20T15:03:43;16.30;99.90
5607;DHT22;2825;53.116;9.392;2022-09-20T15:06:10;16.50;99.90
5607;DHT22;2825;53.116;9.392;2022-09-20T15:08:37;16.50;99.90
5607;DHT22;2825;53.116;9.392;2022-09-20T15:11:03;16.50;99.90
5607;DHT22;2825;53.116;9.392;2022-09-20T15:13:29;16.50;99.90
5607;DHT22;2825;53.116;9.392;2022-09-20T15:15:55;16.50;99.90
5607;DHT22;2825;53.116;9.392;2022-09-20T15:18:26;16.60;99.90
5607;DHT22;2825;53.116;9.392;2022-09-20T15:20:53;16.60;99.90
5607;DHT22;2825;53.116;9.392;2022-09-20T15:23:19;16.70;99.90
5607;DHT22;2825;53.116;9.392;2022-09-20T15:25:48;16.70;99.90
5607;DHT22;2825;53.116;9.392;2022-09-20T15:28:15;16.70;99.90
5607;DHT22;2825;53.116;9.392;2022-09-20T15:30:46;16.60;99.90
5607;DHT22;2825;53.116;9.392;2022-09-20T15:33:13;16.50;99.90
5607;DHT22;2825;53.116;9.392;2022-09-20T15:35:40;16.50;99.90
5607;DHT22;2825;53.116;9.392;2022-09-20T15:38:06;16.50;99.90
5607;DHT22;2825;53.116;9.392;2022-09-20T15:40:42;16.40;99.90
5607;DHT22;2825;53.116;9.392;2022-09-20T15:43:11;16.40;99.90
5607;DHT22;2825;53.116;9.392;2022-09-20T15:45:52;16.30;99.90
5607;DHT22;2825;53.116;9.392;2022-09-20T15:48:20;16.30;99.90
5607;DHT22;2825;53.116;9.392;2022-09-20T15:51:07;16.30;99.90
5607;DHT22;2825;53.116;9.392;2022-09-20T15:54:13;16.20;99.90
5607;DHT22;2825;53.116;9.392;2022-09-20T15:56:36;16.20;99.90
5607;DHT22;2825;53.116;9.392;2022-09-20T15:59:04;16.20;99.90
5607;DHT22;2825;53.116;9.392;2022-09-20T16:01:33;16.20;99.90
5607;DHT22;2825;53.116;9.392;2022-09-20T16:04:16;16.20;99.90
5607;DHT22;2825;53.116;9.392;2022-09-20T16:06:47;16.20;99.90
5607;DHT22;2825;53.116;9.392;2022-09-20T16:09:14;16.20;99.90
5607;DHT22;2825;53.116;9.392;2022-09-20T16:11:40;16.10;99.90
5607;DHT22;2825;53.116;9.392;2022-09-20T16:14:06;16.10;99.90
5607;DHT22;2825;53.116;9.392;2022-09-20T16:16:33;16.20;99.90
5607;DHT22;2825;53.116;9.392;2022-09-20T16:18:59;16.10;99.90
5607;DHT22;2825;53.116;9.392;2022-09-20T16:21:53;16.20;99.90
5607;DHT22;2825;53.116;9.392;2022-09-20T16:24:22;16.10;99.90
5607;DHT22;2825;53.116;9.392;2022-09-20T16:26:49;16.10;99.90
5607;DHT22;2825;53.116;9.392;2022-09-20T16:29:14;16.10;99.90
5607;DHT22;2825;53.116;9.392;2022-09-20T16:34:19;16.10;99.90
5607;DHT22;2825;53.116;9.392;2022-09-20T16:36:46;16.00;99.90
5607;DHT22;2825;53.116;9.392;2022-09-20T16:39:14;16.00;99.90
5607;DHT22;2825;53.116;9.392;2022-09-20T16:41:40;16.00;99.90
5607;DHT22;2825;53.116;9.392;2022-09-20T16:44:07;16.00;99.90
5607;DHT22;2825;53.116;9.392;2022-09-20T16:46:33;15.90;99.90
5607;DHT22;2825;53.116;9.392;2022-09-20T16:49:06;15.90;99.90
5607;DHT22;2825;53.116;9.392;2022-09-20T16:51:35;15.80;99.90
5607;DHT22;2825;53.116;9.392;2022-09-20T16:54:03;15.80;99.90
5607;DHT22;2825;53.116;9.392;2022-09-20T16:56:32;15.80;99.90
5607;DHT22;2825;53.116;9.392;2022-09-20T16:59:02;15.70;99.90
5607;DHT22;2825;53.116;9.392;2022-09-20T17:01:29;15.60;99.90
5607;DHT22;2825;53.116;9.392;2022-09-20T17:03:56;15.50;99.90
5607;DHT22;2825;53.116;9.392;2022-09-20T17:06:22;15.50;99.90
5607;DHT22;2825;53.116;9.392;2022-09-20T17:08:51;15.40;99.90
5607;DHT22;2825;53.116;9.392;2022-09-20T17:11:20;15.30;99.90
5607;DHT22;2825;53.116;9.392;2022-09-20T17:13:48;15.30;99.90
5607;DHT22;2825;53.116;9.392;2022-09-20T17:16:24;15.20;99.90
5607;DHT22;2825;53.116;9.392;2022-09-20T17:18:58;15.00;99.90
5607;DHT22;2825;53.116;9.392;2022-09-20T17:21:25;15.00;99.90
5607;DHT22;2825;53.116;9.392;2022-09-20T17:23:53;14.90;99.90
5607;DHT22;2825;53.116;9.392;2022-09-20T17:26:34;14.80;99.90
5607;DHT22;2825;53.116;9.392;2022-09-20T17:29:02;14.70;99.90
5607;DHT22;2825;53.116;9.392;2022-09-20T17:31:31;14.60;99.90
5607;DHT22;2825;53.116;9.392;2022-09-20T17:33:58;14.50;99.90
5607;DHT22;2825;53.116;9.392;2022-09-20T17:36:29;14.30;99.90
5607;DHT22;2825;53.116;9.392;2022-09-20T17:38:57;14.30;99.90
5607;DHT22;2825;53.116;9.392;2022-09-20T17:41:23;14.10;99.90
5607;DHT22;2825;53.116;9.392;2022-09-20T17:43:57;14.00;99.90
5607;DHT22;2825;53.116;9.392;2022-09-20T17:46:26;14.00;99.90
5607;DHT22;2825;53.116;9.392;2022-09-20T17:49:05;13.90;99.90
5607;DHT22;2825;53.116;9.392;2022-09-20T17:51:34;13.70;99.90
5607;DHT22;2825;53.116;9.392;2022-09-20T17:54:00;13.60;99.90
5607;DHT22;2825;53.116;9.392;2022-09-20T17:56:27;13.50;99.90
5607;DHT22;2825;53.116;9.392;2022-09-20T17:58:54;13.40;99.90
5607;DHT22;2825;53.116;9.392;2022-09-20T18:01:21;13.30;99.90
5607;DHT22;2825;53.116;9.392;2022-09-20T18:03:48;13.20;99.90
5607;DHT22;2825;53.116;9.392;2022-09-20T18:08:45;13.00;99.90
5607;DHT22;2825;53.116;9.392;2022-09-20T18:11:12;13.00;99.90
5607;DHT22;2825;53.116;9.392;2022-09-20T18:13:37;12.90;99.90
5607;DHT22;2825;53.116;9.392;2022-09-20T18:16:07;12.90;99.90
5607;DHT22;2825;53.116;9.392;2022-09-20T18:18:33;12.80;99.90
5607;DHT22;2825;53.116;9.392;2022-09-20T18:20:58;12.70;99.90
5607;DHT22;2825;53.116;9.392;2022-09-20T18:23:25;12.60;99.90
5607;DHT22;2825;53.116;9.392;2022-09-20T18:25:50;12.60;99.90
5607;DHT22;2825;53.116;9.392;2022-09-20T18:28:34;12.60;99.90
5607;DHT22;2825;53.116;9.392;2022-09-20T18:31:01;12.50;99.90
5607;DHT22;2825;53.116;9.392;2022-09-20T18:33:28;12.40;99.90
5607;DHT22;2825;53.116;9.392;2022-09-20T18:36:04;12.30;99.90
5607;DHT22;2825;53.116;9.392;2022-09-20T18:38:30;12.30;99.90
5607;DHT22;2825;53.116;9.392;2022-09-20T18:40:58;12.20;99.90
5607;DHT22;2825;53.116;9.392;2022-09-20T18:43:30;12.10;99.90
5607;DHT22;2825;53.116;9.392;2022-09-20T18:45:57;12.00;99.90
5607;DHT22;2825;53.116;9.392;2022-09-20T18:48:24;11.90;99.90
5607;DHT22;2825;53.116;9.392;2022-09-20T18:51:00;11.80;99.90
5607;DHT22;2825;53.116;9.392;2022-09-20T18:53:35;11.60;99.90
5607;DHT22;2825;53.116;9.392;2022-09-20T18:56:08;11.50;99.90
5607;DHT22;2825;53.116;9.392;2022-09-20T18:58:37;11.40;99.90
5607;DHT22;2825;53.116;9.392;2022-09-20T19:12:36;11.30;99.90
5607;DHT22;2825;53.116;9.392;2022-09-20T19:18:03;11.20;99.90
5607;DHT22;2825;53.116;9.392;2022-09-20T19:20:36;11.00;99.90
5607;DHT22;2825;53.116;9.392;2022-09-20T19:26:20;10.90;99.90
5607;DHT22;2825;53.116;9.392;2022-09-20T19:28:46;10.80;99.90
5607;DHT22;2825;53.116;9.392;2022-09-20T19:33:48;10.70;99.90
5607;DHT22;2825;53.116;9.392;2022-09-20T19:36:17;10.70;99.90
5607;DHT22;2825;53.116;9.392;2022-09-20T19:39:15;10.60;99.90
5607;DHT22;2825;53.116;9.392;2022-09-20T19:50:13;10.50;99.90
5607;DHT22;2825;53.116;9.392;2022-09-20T19:52:42;10.50;99.90
5607;DHT22;2825;53.116;9.392;2022-09-20T19:55:12;10.40;99.90
5607;DHT22;2825;53.116;9.392;2022-09-20T19:57:45;10.40;99.90
5607;DHT22;2825;53.116;9.392;2022-09-20T20:00:16;10.30;99.90
5607;DHT22;2825;53.116;9.392;2022-09-20T20:02:43;10.20;99.90
5607;DHT22;2825;53.116;9.392;2022-09-20T20:05:11;10.20;99.90
5607;DHT22;2825;53.116;9.392;2022-09-20T20:10:56;10.10;99.90
5607;DHT22;2825;53.116;9.392;2022-09-20T20:25:06;9.80;99.90
5607;DHT22;2825;53.116;9.392;2022-09-20T20:27:36;9.70;99.90
5607;DHT22;2825;53.116;9.392;2022-09-20T20:30:03;9.70;99.90
5607;DHT22;2825;53.116;9.392;2022-09-20T20:32:29;9.60;99.90
5607;DHT22;2825;53.116;9.392;2022-09-20T20:34:54;9.60;99.90
5607;DHT22;2825;53.116;9.392;2022-09-20T20:37:20;9.60;99.90
5607;DHT22;2825;53.116;9.392;2022-09-20T20:39:48;9.60;99.90
5607;DHT22;2825;53.116;9.392;2022-09-20T20:42:15;9.60;99.90
5607;DHT22;2825;53.116;9.392;2022-09-20T20:44:40;9.50;99.90
5607;DHT22;2825;53.116;9.392;2022-09-20T20:47:07;9.50;99.90
5607;DHT22;2825;53.116;9.392;2022-09-20T20:49:32;9.50;99.90
5607;DHT22;2825;53.116;9.392;2022-09-20T20:51:58;9.50;99.90
5607;DHT22;2825;53.116;9.392;2022-09-20T20:54:29;9.40;99.90
5607;DHT22;2825;53.116;9.392;2022-09-20T20:56:54;9.40;99.90
5607;DHT22;2825;53.116;9.392;2022-09-20T20:59:20;9.40;99.90
5607;DHT22;2825;53.116;9.392;2022-09-20T21:01:45;9.40;99.90
5607;DHT22;2825;53.116;9.392;2022-09-20T21:04:12;9.40;99.90
5607;DHT22;2825;53.116;9.392;2022-09-20T21:06:40;9.30;99.90
5607;DHT22;2825;53.116;9.392;2022-09-20T21:09:09;9.30;99.90
5607;DHT22;2825;53.116;9.392;2022-09-20T21:11:37;9.20;99.90
5607;DHT22;2825;53.116;9.392;2022-09-20T21:14:05;9.10;99.90
5607;DHT22;2825;53.116;9.392;2022-09-20T21:16:34;9.00;99.90
5607;DHT22;2825;53.116;9.392;2022-09-20T21:19:00;9.00;99.90
5607;DHT22;2825;53.116;9.392;2022-09-20T21:21:28;9.00;99.90
5607;DHT22;2825;53.116;9.392;2022-09-20T21:23:59;9.00;99.90
5607;DHT22;2825;53.116;9.392;2022-09-20T21:26:26;9.00;99.90
5607;DHT22;2825;53.116;9.392;2022-09-20T21:28:57;8.90;99.90
5607;DHT22;2825;53.116;9.392;2022-09-20T21:31:28;8.70;99.90
5607;DHT22;2825;53.116;9.392;2022-09-20T21:33:54;8.60;99.90
5607;DHT22;2825;53.116;9.392;2022-09-20T21:36:25;8.60;99.90
5607;DHT22;2825;53.116;9.392;2022-09-20T21:38:52;8.60;99.90
5607;DHT22;2825;53.116;9.392;2022-09-20T21:41:23;8.70;99.90
5607;DHT22;2825;53.116;9.392;2022-09-20T21:43:52;8.70;99.90
5607;DHT22;2825;53.116;9.392;2022-09-20T21:46:24;8.60;99.90
5607;DHT22;2825;53.116;9.392;2022-09-20T21:48:53;8.60;99.90
5607;DHT22;2825;53.116;9.392;2022-09-20T21:51:19;8.60;99.90
5607;DHT22;2825;53.116;9.392;2022-09-20T21:53:46;8.60;99.90
5607;DHT22;2825;53.116;9.392;2022-09-20T21:56:13;8.60;99.90
5607;DHT22;2825;53.116;9.392;2022-09-20T21:58:41;8.60;99.90
5607;DHT22;2825;53.116;9.392;2022-09-20T22:01:09;8.60;99.90
5607;DHT22;2825;53.116;9.392;2022-09-20T22:06:28;8.50;99.90
5607;DHT22;2825;53.116;9.392;2022-09-20T22:08:54;8.40;99.90
5607;DHT22;2825;53.116;9.392;2022-09-20T22:11:25;8.40;99.90
5607;DHT22;2825;53.116;9.392;2022-09-20T22:13:52;8.30;99.90
5607;DHT22;2825;53.116;9.392;2022-09-20T22:16:19;8.30;99.90
5607;DHT22;2825;53.116;9.392;2022-09-20T22:18:45;8.30;99.90
5607;DHT22;2825;53.116;9.392;2022-09-20T22:21:12;8.30;99.90
5607;DHT22;2825;53.116;9.392;2022-09-20T22:23:38;8.30;99.90
5607;DHT22;2825;53.116;9.392;2022-09-20T22:26:07;8.20;99.90
5607;DHT22;2825;53.116;9.392;2022-09-20T22:28:33;8.20;99.90
5607;DHT22;2825;53.116;9.392;2022-09-20T22:31:07;8.20;99.90
5607;DHT22;2825;53.116;9.392;2022-09-20T22:33:34;8.10;99.90
5607;DHT22;2825;53.116;9.392;2022-09-20T22:36:00;8.10;99.90
5607;DHT22;2825;53.116;9.392;2022-09-20T22:38:29;8.00;99.90
5607;DHT22;2825;53.116;9.392;2022-09-20T22:40:56;7.90;99.90
5607;DHT22;2825;53.116;9.392;2022-09-20T22:43:22;7.80;99.90
5607;DHT22;2825;53.116;9.392;2022-09-20T22:45:48;7.80;99.90
5607;DHT22;2825;53.116;9.392;2022-09-20T22:48:14;7.80;99.90
5607;DHT22;2825;53.116;9.392;2022-09-20T22:50:40;7.80;99.90
5607;DHT22;2825;53.116;9.392;2022-09-20T22:53:06;7.90;99.90
5607;DHT22;2825;53.116;9.392;2022-09-20T22:55:31;7.90;99.90
5607;DHT22;2825;53.116;9.392;2022-09-20T22:57:57;7.80;99.90
5607;DHT22;2825;53.116;9.392;2022-09-20T23:00:23;7.80;99.90
5607;DHT22;2825;53.116;9.392;2022-09-20T23:02:49;7.80;99.90
5607;DHT22;2825;53.116;9.392;2022-09-20T23:05:15;7.80;99.90
5607;DHT22;2825;53.116;9.392;2022-09-20T23:07:42;7.80;99.90
5607;DHT22;2825;53.116;9.392;2022-09-20T23:10:08;7.80;99.90
5607;DHT22;2825;53.116;9.392;2022-09-20T23:12:34;7.70;99.90
5607;DHT22;2825;53.116;9.392;2022-09-20T23:14:59;7.60;99.90
5607;DHT22;2825;53.116;9.392;2022-09-20T23:17:25;7.60;99.90
5607;DHT22;2825;53.116;9.392;2022-09-20T23:19:51;7.60;99.90
5607;DHT22;2825;53.116;9.392;2022-09-20T23:22:17;7.60;99.90
5607;DHT22;2825;53.116;9.392;2022-09-20T23:24:42;7.60;99.90